Wareham, MA

12:53 PM EST on February 28, 2015 (GMT -0500)
Plymouth Municipal | Change Station
CLOSE
Current Station
Airport
Location: Plymouth,
Elevation: 148 ft
Nearby Weather Stations

Elev 148 ft 41.91 °N, 70.73 °W | Updated 1 hour ago

Clear
Clear
23 °F
Feels Like 15 °F
N
7
Wind Variable Wind from West

Today
High -- | Low -- °F
--% Chance of Precip.
Yesterday
High -- | Low -- °F
Precip. -- in
6:19 AM 5:31 PM
Waxing Gibbous, 79% visible
Pressure 30.74 in
Visibility 10.0 miles
Clouds Clear
Windchill 15 °F
Dew Point -2 °F
Humidity 34%
Rainfall 0.00 in
Snow Depth Not available.
UV 5 out of 12
Pollen .40 out of 12
Air Quality Not available.
Flu Activity Not available.
METAR KPYM 281652Z AUTO 26006KT 10SM CLR M05/M19 A3073 RMK AO2 SLP410 T10501189

More Conditions Fewer Conditions

Pressure 30.74 in
Visibility 10.0 miles
Clouds Clear
Windchill 15 °F
Dew Point -2 °F
Humidity 34%
Rainfall 0.00 in
Snow Depth Not available.
UV 5 out of 12
Pollen .40 out of 12
Air Quality Not available.
Flu Activity Not available.
METAR KPYM 281652Z AUTO 26006KT 10SM CLR M05/M19 A3073 RMK AO2 SLP410 T10501189

More Conditions Fewer Conditions

10-Day Weather Forecast

Almanac

Astronomy

Feb. 28, 2015 Rise Set
Actual Time
Civil Twilight
Nautical Twilight
Astronomical Twilight
Moon
Length of Visible Light
Length of Day
Tomorrow will be .
, % of the Moon is Illuminated

Today's Extremes

State Highs State Lows

Community

WunderPhotos

Upload Photos

1,801,102 photos uploaded!

WunderBlogs® & News

Nearby

Air Quality

  Air Quality AQ Index Pollutant
Not available.

Snow Depth

Station Depth Elevation

Earthquake Activity

City Distance Mag. Time & Date
Minimum magnitude displayed is 2.5.

Coastal Water Temperatures

Place Temperature

Nearby Weather Stations